sensor_id;sensor_type;location;lat;lon;timestamp;temperature;humidity
30473;DHT22;17263;48.160;11.452;2022-09-09T00:01:50;16.00;99.90
30473;DHT22;17263;48.160;11.452;2022-09-09T00:04:38;16.00;99.90
30473;DHT22;17263;48.160;11.452;2022-09-09T00:07:49;15.90;99.90
30473;DHT22;17263;48.160;11.452;2022-09-09T00:10:40;15.90;99.90
30473;DHT22;17263;48.160;11.452;2022-09-09T00:13:43;16.00;99.90
30473;DHT22;17263;48.160;11.452;2022-09-09T00:16:36;16.00;99.90
30473;DHT22;17263;48.160;11.452;2022-09-09T00:22:40;16.00;99.90
30473;DHT22;17263;48.160;11.452;2022-09-09T00:25:40;16.00;99.90
30473;DHT22;17263;48.160;11.452;2022-09-09T00:28:29;16.00;99.90
30473;DHT22;17263;48.160;11.452;2022-09-09T00:31:25;16.00;99.90
30473;DHT22;17263;48.160;11.452;2022-09-09T00:34:15;16.00;99.90
30473;DHT22;17263;48.160;11.452;2022-09-09T00:37:03;16.00;99.90
30473;DHT22;17263;48.160;11.452;2022-09-09T00:39:51;16.00;99.90
30473;DHT22;17263;48.160;11.452;2022-09-09T00:42:44;16.00;99.90
30473;DHT22;17263;48.160;11.452;2022-09-09T00:51:55;15.90;99.90
30473;DHT22;17263;48.160;11.452;2022-09-09T00:57:45;15.80;99.90
30473;DHT22;17263;48.160;11.452;2022-09-09T01:00:52;15.70;99.90
30473;DHT22;17263;48.160;11.452;2022-09-09T01:03:54;15.60;99.90
30473;DHT22;17263;48.160;11.452;2022-09-09T01:06:41;15.60;99.90
30473;DHT22;17263;48.160;11.452;2022-09-09T01:09:32;15.60;99.90
30473;DHT22;17263;48.160;11.452;2022-09-09T01:12:34;15.50;99.90
30473;DHT22;17263;48.160;11.452;2022-09-09T01:15:27;15.50;99.90
30473;DHT22;17263;48.160;11.452;2022-09-09T01:18:17;15.40;99.90
30473;DHT22;17263;48.160;11.452;2022-09-09T01:24:32;15.50;99.90
30473;DHT22;17263;48.160;11.452;2022-09-09T01:27:21;15.50;99.90
30473;DHT22;17263;48.160;11.452;2022-09-09T01:30:11;15.60;99.90
30473;DHT22;17263;48.160;11.452;2022-09-09T01:32:59;15.60;99.90
30473;DHT22;17263;48.160;11.452;2022-09-09T01:35:57;15.60;99.90
30473;DHT22;17263;48.160;11.452;2022-09-09T01:38:46;15.60;99.90
30473;DHT22;17263;48.160;11.452;2022-09-09T01:41:33;15.60;99.90
30473;DHT22;17263;48.160;11.452;2022-09-09T01:44:19;15.50;99.90
30473;DHT22;17263;48.160;11.452;2022-09-09T01:47:06;15.50;99.90
30473;DHT22;17263;48.160;11.452;2022-09-09T01:49:53;15.50;99.90
30473;DHT22;17263;48.160;11.452;2022-09-09T01:52:39;15.50;99.90
30473;DHT22;17263;48.160;11.452;2022-09-09T01:55:35;15.40;99.90
30473;DHT22;17263;48.160;11.452;2022-09-09T01:58:34;15.40;99.90
30473;DHT22;17263;48.160;11.452;2022-09-09T02:04:48;15.30;99.90
30473;DHT22;17263;48.160;11.452;2022-09-09T02:07:50;15.20;99.90
30473;DHT22;17263;48.160;11.452;2022-09-09T02:11:05;15.30;99.90
30473;DHT22;17263;48.160;11.452;2022-09-09T02:14:30;15.20;99.90
30473;DHT22;17263;48.160;11.452;2022-09-09T02:17:25;15.20;99.90
30473;DHT22;17263;48.160;11.452;2022-09-09T02:20:15;15.20;99.90
30473;DHT22;17263;48.160;11.452;2022-09-09T02:23:05;15.20;99.90
30473;DHT22;17263;48.160;11.452;2022-09-09T02:25:56;15.10;99.90
30473;DHT22;17263;48.160;11.452;2022-09-09T02:28:44;15.10;99.90
30473;DHT22;17263;48.160;11.452;2022-09-09T02:31:31;15.10;99.90
30473;DHT22;17263;48.160;11.452;2022-09-09T02:34:22;15.10;99.90
30473;DHT22;17263;48.160;11.452;2022-09-09T02:37:10;15.10;99.90
30473;DHT22;17263;48.160;11.452;2022-09-09T02:39:58;15.10;99.90
30473;DHT22;17263;48.160;11.452;2022-09-09T02:42:47;15.10;99.90
30473;DHT22;17263;48.160;11.452;2022-09-09T02:48:54;15.10;99.90
30473;DHT22;17263;48.160;11.452;2022-09-09T02:52:01;15.10;99.90
30473;DHT22;17263;48.160;11.452;2022-09-09T02:54:49;15.10;99.90
30473;DHT22;17263;48.160;11.452;2022-09-09T02:57:40;15.10;99.90
30473;DHT22;17263;48.160;11.452;2022-09-09T03:00:28;15.10;99.90
30473;DHT22;17263;48.160;11.452;2022-09-09T03:03:16;15.00;99.90
30473;DHT22;17263;48.160;11.452;2022-09-09T03:06:03;15.00;99.90
30473;DHT22;17263;48.160;11.452;2022-09-09T03:08:49;15.00;99.90
30473;DHT22;17263;48.160;11.452;2022-09-09T03:11:36;15.00;99.90
30473;DHT22;17263;48.160;11.452;2022-09-09T03:14:24;15.10;99.90
30473;DHT22;17263;48.160;11.452;2022-09-09T03:17:11;15.10;99.90
30473;DHT22;17263;48.160;11.452;2022-09-09T03:19:57;15.10;99.90
30473;DHT22;17263;48.160;11.452;2022-09-09T03:22:44;15.10;99.90
30473;DHT22;17263;48.160;11.452;2022-09-09T03:25:31;15.10;99.90
30473;DHT22;17263;48.160;11.452;2022-09-09T03:28:18;15.10;99.90
30473;DHT22;17263;48.160;11.452;2022-09-09T03:31:06;15.10;99.90
30473;DHT22;17263;48.160;11.452;2022-09-09T03:33:52;15.00;99.90
30473;DHT22;17263;48.160;11.452;2022-09-09T03:36:38;15.00;99.90
30473;DHT22;17263;48.160;11.452;2022-09-09T03:39:25;15.00;99.90
30473;DHT22;17263;48.160;11.452;2022-09-09T03:42:15;15.00;99.90
30473;DHT22;17263;48.160;11.452;2022-09-09T03:45:09;15.00;99.90
30473;DHT22;17263;48.160;11.452;2022-09-09T03:47:56;15.00;99.90
30473;DHT22;17263;48.160;11.452;2022-09-09T03:50:51;15.00;99.90
30473;DHT22;17263;48.160;11.452;2022-09-09T03:53:37;15.00;99.90
30473;DHT22;17263;48.160;11.452;2022-09-09T03:56:24;15.00;99.90
30473;DHT22;17263;48.160;11.452;2022-09-09T03:59:10;15.10;99.90
30473;DHT22;17263;48.160;11.452;2022-09-09T04:01:57;15.10;99.90
30473;DHT22;17263;48.160;11.452;2022-09-09T04:04:45;15.10;99.90
30473;DHT22;17263;48.160;11.452;2022-09-09T04:07:31;15.20;99.90
30473;DHT22;17263;48.160;11.452;2022-09-09T04:10:18;15.10;99.90
30473;DHT22;17263;48.160;11.452;2022-09-09T04:13:05;15.10;99.90
30473;DHT22;17263;48.160;11.452;2022-09-09T04:15:52;15.10;99.90
30473;DHT22;17263;48.160;11.452;2022-09-09T04:18:39;15.20;99.90
30473;DHT22;17263;48.160;11.452;2022-09-09T04:21:26;15.20;99.90
30473;DHT22;17263;48.160;11.452;2022-09-09T04:24:12;15.20;99.90
30473;DHT22;17263;48.160;11.452;2022-09-09T04:26:58;15.20;99.90
30473;DHT22;17263;48.160;11.452;2022-09-09T04:29:45;15.20;99.90
30473;DHT22;17263;48.160;11.452;2022-09-09T04:32:35;15.20;99.90
30473;DHT22;17263;48.160;11.452;2022-09-09T04:35:22;15.20;99.90
30473;DHT22;17263;48.160;11.452;2022-09-09T04:38:09;15.20;99.90
30473;DHT22;17263;48.160;11.452;2022-09-09T04:40:55;15.10;99.90
30473;DHT22;17263;48.160;11.452;2022-09-09T04:43:42;15.10;99.90
30473;DHT22;17263;48.160;11.452;2022-09-09T04:46:28;15.00;99.90
30473;DHT22;17263;48.160;11.452;2022-09-09T04:49:14;15.00;99.90
30473;DHT22;17263;48.160;11.452;2022-09-09T04:52:04;15.00;99.90
30473;DHT22;17263;48.160;11.452;2022-09-09T04:54:50;14.90;99.90
30473;DHT22;17263;48.160;11.452;2022-09-09T04:57:37;14.90;99.90
30473;DHT22;17263;48.160;11.452;2022-09-09T05:00:24;14.90;99.90
30473;DHT22;17263;48.160;11.452;2022-09-09T05:03:10;14.90;99.90
30473;DHT22;17263;48.160;11.452;2022-09-09T05:06:12;14.90;99.90
30473;DHT22;17263;48.160;11.452;2022-09-09T05:08:59;14.90;99.90
30473;DHT22;17263;48.160;11.452;2022-09-09T05:11:46;14.90;99.90
30473;DHT22;17263;48.160;11.452;2022-09-09T05:14:32;14.90;99.90
30473;DHT22;17263;48.160;11.452;2022-09-09T05:17:18;14.90;99.90
30473;DHT22;17263;48.160;11.452;2022-09-09T05:20:05;14.90;99.90
30473;DHT22;17263;48.160;11.452;2022-09-09T05:22:56;14.80;99.90
30473;DHT22;17263;48.160;11.452;2022-09-09T05:25:42;14.80;99.90
30473;DHT22;17263;48.160;11.452;2022-09-09T05:28:29;14.80;99.90
30473;DHT22;17263;48.160;11.452;2022-09-09T05:31:18;14.70;99.90
30473;DHT22;17263;48.160;11.452;2022-09-09T05:34:04;14.80;99.90
30473;DHT22;17263;48.160;11.452;2022-09-09T05:36:51;14.80;99.90
30473;DHT22;17263;48.160;11.452;2022-09-09T05:39:38;14.90;99.90
30473;DHT22;17263;48.160;11.452;2022-09-09T05:42:24;15.00;99.90
30473;DHT22;17263;48.160;11.452;2022-09-09T05:45:11;15.00;99.90
30473;DHT22;17263;48.160;11.452;2022-09-09T05:47:57;15.10;99.90
30473;DHT22;17263;48.160;11.452;2022-09-09T05:50:52;15.10;99.90
30473;DHT22;17263;48.160;11.452;2022-09-09T05:53:39;15.20;99.90
30473;DHT22;17263;48.160;11.452;2022-09-09T05:56:27;15.20;99.90
30473;DHT22;17263;48.160;11.452;2022-09-09T05:59:13;15.20;99.90
30473;DHT22;17263;48.160;11.452;2022-09-09T06:02:00;15.20;99.90
30473;DHT22;17263;48.160;11.452;2022-09-09T06:04:47;15.30;99.90
30473;DHT22;17263;48.160;11.452;2022-09-09T06:07:33;15.30;99.90
30473;DHT22;17263;48.160;11.452;2022-09-09T06:10:19;15.40;99.90
30473;DHT22;17263;48.160;11.452;2022-09-09T06:13:06;15.50;99.90
30473;DHT22;17263;48.160;11.452;2022-09-09T06:15:52;15.50;99.90
30473;DHT22;17263;48.160;11.452;2022-09-09T06:18:39;15.50;99.90
30473;DHT22;17263;48.160;11.452;2022-09-09T06:21:28;15.50;99.90
30473;DHT22;17263;48.160;11.452;2022-09-09T06:24:15;15.50;99.90
30473;DHT22;17263;48.160;11.452;2022-09-09T06:27:03;15.60;99.90
30473;DHT22;17263;48.160;11.452;2022-09-09T06:29:51;15.70;99.90
30473;DHT22;17263;48.160;11.452;2022-09-09T06:32:37;15.80;99.90
30473;DHT22;17263;48.160;11.452;2022-09-09T06:35:23;15.80;99.90
30473;DHT22;17263;48.160;11.452;2022-09-09T06:38:10;15.90;99.90
30473;DHT22;17263;48.160;11.452;2022-09-09T06:40:58;15.90;99.90
30473;DHT22;17263;48.160;11.452;2022-09-09T06:43:48;15.90;99.90
30473;DHT22;17263;48.160;11.452;2022-09-09T06:46:35;15.90;99.90
30473;DHT22;17263;48.160;11.452;2022-09-09T06:49:21;16.00;99.90
30473;DHT22;17263;48.160;11.452;2022-09-09T06:52:08;16.00;99.90
30473;DHT22;17263;48.160;11.452;2022-09-09T06:54:55;16.10;99.90
30473;DHT22;17263;48.160;11.452;2022-09-09T06:57:41;16.10;99.90
30473;DHT22;17263;48.160;11.452;2022-09-09T07:00:27;16.10;99.90
30473;DHT22;17263;48.160;11.452;2022-09-09T07:03:14;16.10;99.90
30473;DHT22;17263;48.160;11.452;2022-09-09T07:06:01;16.20;99.90
30473;DHT22;17263;48.160;11.452;2022-09-09T07:09:10;16.20;99.90
30473;DHT22;17263;48.160;11.452;2022-09-09T07:11:57;16.20;99.90
30473;DHT22;17263;48.160;11.452;2022-09-09T07:14:45;16.30;99.90
30473;DHT22;17263;48.160;11.452;2022-09-09T07:17:31;16.30;99.90
30473;DHT22;17263;48.160;11.452;2022-09-09T07:20:18;16.30;99.90
30473;DHT22;17263;48.160;11.452;2022-09-09T07:23:05;16.20;99.90
30473;DHT22;17263;48.160;11.452;2022-09-09T07:25:52;16.30;99.90
30473;DHT22;17263;48.160;11.452;2022-09-09T07:28:39;16.30;99.90
30473;DHT22;17263;48.160;11.452;2022-09-09T07:31:28;16.40;99.90
30473;DHT22;17263;48.160;11.452;2022-09-09T07:34:16;16.50;99.90
30473;DHT22;17263;48.160;11.452;2022-09-09T07:37:02;16.70;99.90
30473;DHT22;17263;48.160;11.452;2022-09-09T07:39:49;16.80;99.90
30473;DHT22;17263;48.160;11.452;2022-09-09T07:42:37;16.90;99.90
30473;DHT22;17263;48.160;11.452;2022-09-09T07:45:23;16.90;99.90
30473;DHT22;17263;48.160;11.452;2022-09-09T07:48:09;17.00;99.90
30473;DHT22;17263;48.160;11.452;2022-09-09T07:51:14;17.00;99.90
30473;DHT22;17263;48.160;11.452;2022-09-09T07:54:05;17.10;99.90
30473;DHT22;17263;48.160;11.452;2022-09-09T07:56:52;17.20;99.90
30473;DHT22;17263;48.160;11.452;2022-09-09T07:59:38;17.30;99.90
30473;DHT22;17263;48.160;11.452;2022-09-09T08:02:25;17.40;99.90
30473;DHT22;17263;48.160;11.452;2022-09-09T08:05:14;17.50;99.90
30473;DHT22;17263;48.160;11.452;2022-09-09T08:08:01;17.60;99.90
30473;DHT22;17263;48.160;11.452;2022-09-09T08:10:49;17.80;99.90
30473;DHT22;17263;48.160;11.452;2022-09-09T08:13:37;17.90;99.90
30473;DHT22;17263;48.160;11.452;2022-09-09T08:16:27;17.90;99.90
30473;DHT22;17263;48.160;11.452;2022-09-09T08:19:14;17.90;99.90
30473;DHT22;17263;48.160;11.452;2022-09-09T08:22:03;17.90;99.90
30473;DHT22;17263;48.160;11.452;2022-09-09T08:24:49;17.90;99.90
30473;DHT22;17263;48.160;11.452;2022-09-09T08:27:36;17.80;99.90
30473;DHT22;17263;48.160;11.452;2022-09-09T08:30:23;17.80;99.90
30473;DHT22;17263;48.160;11.452;2022-09-09T08:33:09;17.70;99.90
30473;DHT22;17263;48.160;11.452;2022-09-09T08:35:56;17.70;99.90
30473;DHT22;17263;48.160;11.452;2022-09-09T08:38:43;17.60;99.90
30473;DHT22;17263;48.160;11.452;2022-09-09T08:44:53;17.60;99.90
30473;DHT22;17263;48.160;11.452;2022-09-09T08:51:01;17.60;99.90
30473;DHT22;17263;48.160;11.452;2022-09-09T08:53:51;17.60;99.90
30473;DHT22;17263;48.160;11.452;2022-09-09T08:56:38;17.60;99.90
30473;DHT22;17263;48.160;11.452;2022-09-09T08:59:24;17.60;99.90
30473;DHT22;17263;48.160;11.452;2022-09-09T09:02:31;17.70;99.90
30473;DHT22;17263;48.160;11.452;2022-09-09T09:05:37;17.80;99.90
30473;DHT22;17263;48.160;11.452;2022-09-09T09:08:33;17.90;99.90
30473;DHT22;17263;48.160;11.452;2022-09-09T09:11:24;18.30;99.90
30473;DHT22;17263;48.160;11.452;2022-09-09T09:14:26;18.50;99.90
30473;DHT22;17263;48.160;11.452;2022-09-09T09:17:19;18.80;99.90
30473;DHT22;17263;48.160;11.452;2022-09-09T09:20:12;18.80;99.90
30473;DHT22;17263;48.160;11.452;2022-09-09T09:23:02;18.70;99.90
30473;DHT22;17263;48.160;11.452;2022-09-09T09:25:52;18.70;99.90
30473;DHT22;17263;48.160;11.452;2022-09-09T09:28:39;18.70;99.90
30473;DHT22;17263;48.160;11.452;2022-09-09T09:31:26;18.80;99.90
30473;DHT22;17263;48.160;11.452;2022-09-09T09:34:15;18.90;99.90
30473;DHT22;17263;48.160;11.452;2022-09-09T09:37:23;19.00;99.90
30473;DHT22;17263;48.160;11.452;2022-09-09T09:40:17;19.10;99.90
30473;DHT22;17263;48.160;11.452;2022-09-09T09:43:04;19.00;99.90
30473;DHT22;17263;48.160;11.452;2022-09-09T09:45:55;19.00;99.90
30473;DHT22;17263;48.160;11.452;2022-09-09T09:48:43;18.90;99.90
30473;DHT22;17263;48.160;11.452;2022-09-09T09:51:32;18.80;99.90
30473;DHT22;17263;48.160;11.452;2022-09-09T09:54:28;18.60;99.90
30473;DHT22;17263;48.160;11.452;2022-09-09T09:57:16;18.50;99.90
30473;DHT22;17263;48.160;11.452;2022-09-09T10:03:00;18.40;99.90
30473;DHT22;17263;48.160;11.452;2022-09-09T10:05:47;18.20;99.90
30473;DHT22;17263;48.160;11.452;2022-09-09T10:08:43;18.20;99.90
30473;DHT22;17263;48.160;11.452;2022-09-09T10:12:10;18.10;99.90
30473;DHT22;17263;48.160;11.452;2022-09-09T10:18:21;17.90;99.90
30473;DHT22;17263;48.160;11.452;2022-09-09T10:36:47;18.40;99.90
30473;DHT22;17263;48.160;11.452;2022-09-09T10:39:38;18.50;99.90
30473;DHT22;17263;48.160;11.452;2022-09-09T10:42:31;18.60;99.90
30473;DHT22;17263;48.160;11.452;2022-09-09T10:45:22;18.90;99.90
30473;DHT22;17263;48.160;11.452;2022-09-09T10:48:37;19.00;99.90
30473;DHT22;17263;48.160;11.452;2022-09-09T10:51:33;19.20;99.90
30473;DHT22;17263;48.160;11.452;2022-09-09T10:54:45;19.20;99.90
30473;DHT22;17263;48.160;11.452;2022-09-09T10:57:49;19.30;99.90
30473;DHT22;17263;48.160;11.452;2022-09-09T11:03:28;19.50;99.90
30473;DHT22;17263;48.160;11.452;2022-09-09T11:06:21;19.60;99.90
30473;DHT22;17263;48.160;11.452;2022-09-09T11:09:16;19.60;99.90
30473;DHT22;17263;48.160;11.452;2022-09-09T11:12:05;19.70;99.90
30473;DHT22;17263;48.160;11.452;2022-09-09T11:15:06;20.00;99.90
30473;DHT22;17263;48.160;11.452;2022-09-09T11:17:56;20.10;99.90
30473;DHT22;17263;48.160;11.452;2022-09-09T11:20:46;20.20;99.90
30473;DHT22;17263;48.160;11.452;2022-09-09T11:23:40;20.40;99.90
30473;DHT22;17263;48.160;11.452;2022-09-09T11:26:33;20.40;99.90
30473;DHT22;17263;48.160;11.452;2022-09-09T11:32:45;20.60;99.90
30473;DHT22;17263;48.160;11.452;2022-09-09T11:36:09;20.60;99.90
30473;DHT22;17263;48.160;11.452;2022-09-09T11:42:22;20.70;99.90
30473;DHT22;17263;48.160;11.452;2022-09-09T11:47:59;20.60;99.90
30473;DHT22;17263;48.160;11.452;2022-09-09T11:50:58;20.60;99.90
30473;DHT22;17263;48.160;11.452;2022-09-09T11:57:33;20.40;99.90
30473;DHT22;17263;48.160;11.452;2022-09-09T12:03:48;20.50;99.90
30473;DHT22;17263;48.160;11.452;2022-09-09T12:06:53;20.40;99.90
30473;DHT22;17263;48.160;11.452;2022-09-09T12:09:48;20.40;99.90
30473;DHT22;17263;48.160;11.452;2022-09-09T12:12:38;20.20;99.90
30473;DHT22;17263;48.160;11.452;2022-09-09T12:15:28;20.20;99.90
30473;DHT22;17263;48.160;11.452;2022-09-09T12:18:22;20.30;99.90
30473;DHT22;17263;48.160;11.452;2022-09-09T12:21:32;20.40;99.90
30473;DHT22;17263;48.160;11.452;2022-09-09T12:27:28;20.60;99.90
30473;DHT22;17263;48.160;11.452;2022-09-09T12:30:17;20.70;99.90
30473;DHT22;17263;48.160;11.452;2022-09-09T12:33:17;20.80;99.90
30473;DHT22;17263;48.160;11.452;2022-09-09T12:36:04;21.00;99.90
30473;DHT22;17263;48.160;11.452;2022-09-09T12:38:52;21.00;99.90
30473;DHT22;17263;48.160;11.452;2022-09-09T12:41:39;21.00;99.90
30473;DHT22;17263;48.160;11.452;2022-09-09T12:44:26;21.10;99.90
30473;DHT22;17263;48.160;11.452;2022-09-09T12:47:15;21.00;99.90
30473;DHT22;17263;48.160;11.452;2022-09-09T12:50:02;20.90;99.90
30473;DHT22;17263;48.160;11.452;2022-09-09T12:52:54;20.90;99.90
30473;DHT22;17263;48.160;11.452;2022-09-09T12:55:59;20.90;99.90
30473;DHT22;17263;48.160;11.452;2022-09-09T12:58:48;20.80;99.90
30473;DHT22;17263;48.160;11.452;2022-09-09T13:01:37;20.80;99.90
30473;DHT22;17263;48.160;11.452;2022-09-09T13:04:24;20.80;99.90
30473;DHT22;17263;48.160;11.452;2022-09-09T13:07:11;20.80;99.90
30473;DHT22;17263;48.160;11.452;2022-09-09T13:09:58;20.80;99.90
30473;DHT22;17263;48.160;11.452;2022-09-09T13:12:44;20.80;99.90
30473;DHT22;17263;48.160;11.452;2022-09-09T13:15:30;20.80;99.90
30473;DHT22;17263;48.160;11.452;2022-09-09T13:18:23;20.80;99.90
30473;DHT22;17263;48.160;11.452;2022-09-09T13:21:09;20.80;99.90
30473;DHT22;17263;48.160;11.452;2022-09-09T13:23:56;20.90;99.90
30473;DHT22;17263;48.160;11.452;2022-09-09T13:26:42;20.90;99.90
30473;DHT22;17263;48.160;11.452;2022-09-09T13:29:31;20.80;99.90
30473;DHT22;17263;48.160;11.452;2022-09-09T13:32:18;20.90;99.90
30473;DHT22;17263;48.160;11.452;2022-09-09T13:35:23;20.90;99.90
30473;DHT22;17263;48.160;11.452;2022-09-09T13:38:12;21.00;99.90
30473;DHT22;17263;48.160;11.452;2022-09-09T13:41:10;20.90;99.90
30473;DHT22;17263;48.160;11.452;2022-09-09T13:43:56;21.00;99.90
30473;DHT22;17263;48.160;11.452;2022-09-09T13:46:44;20.90;99.90
30473;DHT22;17263;48.160;11.452;2022-09-09T13:49:31;20.80;99.90
30473;DHT22;17263;48.160;11.452;2022-09-09T13:52:19;20.70;99.90
30473;DHT22;17263;48.160;11.452;2022-09-09T13:55:06;20.50;99.90
30473;DHT22;17263;48.160;11.452;2022-09-09T13:58:02;20.40;99.90
30473;DHT22;17263;48.160;11.452;2022-09-09T14:00:49;20.30;99.90
30473;DHT22;17263;48.160;11.452;2022-09-09T14:03:35;20.10;99.90
30473;DHT22;17263;48.160;11.452;2022-09-09T14:06:23;19.90;99.90
30473;DHT22;17263;48.160;11.452;2022-09-09T14:09:12;19.90;99.90
30473;DHT22;17263;48.160;11.452;2022-09-09T14:11:59;19.80;99.90
30473;DHT22;17263;48.160;11.452;2022-09-09T14:14:46;19.70;99.90
30473;DHT22;17263;48.160;11.452;2022-09-09T14:17:33;19.70;99.90
30473;DHT22;17263;48.160;11.452;2022-09-09T14:20:19;19.60;99.90
30473;DHT22;17263;48.160;11.452;2022-09-09T14:23:10;19.60;99.90
30473;DHT22;17263;48.160;11.452;2022-09-09T14:25:57;19.60;99.90
30473;DHT22;17263;48.160;11.452;2022-09-09T14:28:43;19.60;99.90
30473;DHT22;17263;48.160;11.452;2022-09-09T14:31:30;19.60;99.90
30473;DHT22;17263;48.160;11.452;2022-09-09T14:34:16;19.70;99.90
30473;DHT22;17263;48.160;11.452;2022-09-09T14:37:03;19.60;99.90
30473;DHT22;17263;48.160;11.452;2022-09-09T14:39:50;19.60;99.90
30473;DHT22;17263;48.160;11.452;2022-09-09T14:42:36;19.50;99.90
30473;DHT22;17263;48.160;11.452;2022-09-09T14:45:23;19.40;99.90
30473;DHT22;17263;48.160;11.452;2022-09-09T14:48:10;19.30;99.90
30473;DHT22;17263;48.160;11.452;2022-09-09T14:50:57;19.30;99.90
30473;DHT22;17263;48.160;11.452;2022-09-09T14:53:44;19.20;99.90
30473;DHT22;17263;48.160;11.452;2022-09-09T14:56:32;19.20;99.90
30473;DHT22;17263;48.160;11.452;2022-09-09T14:59:20;19.20;99.90
30473;DHT22;17263;48.160;11.452;2022-09-09T15:02:10;19.20;99.90
30473;DHT22;17263;48.160;11.452;2022-09-09T15:04:56;19.20;99.90
30473;DHT22;17263;48.160;11.452;2022-09-09T15:07:46;19.10;99.90
30473;DHT22;17263;48.160;11.452;2022-09-09T15:10:34;19.10;99.90
30473;DHT22;17263;48.160;11.452;2022-09-09T15:13:20;19.10;99.90
30473;DHT22;17263;48.160;11.452;2022-09-09T15:16:14;19.10;99.90
30473;DHT22;17263;48.160;11.452;2022-09-09T15:19:02;19.10;99.90
30473;DHT22;17263;48.160;11.452;2022-09-09T15:21:48;19.20;99.90
30473;DHT22;17263;48.160;11.452;2022-09-09T15:24:35;19.30;99.90
30473;DHT22;17263;48.160;11.452;2022-09-09T15:27:21;19.40;99.90
30473;DHT22;17263;48.160;11.452;2022-09-09T15:30:09;19.60;99.90
30473;DHT22;17263;48.160;11.452;2022-09-09T15:32:56;19.70;99.90
30473;DHT22;17263;48.160;11.452;2022-09-09T15:35:42;19.70;99.90
30473;DHT22;17263;48.160;11.452;2022-09-09T15:38:31;19.80;99.90
30473;DHT22;17263;48.160;11.452;2022-09-09T15:41:18;19.80;99.90
30473;DHT22;17263;48.160;11.452;2022-09-09T15:44:05;19.80;99.90
30473;DHT22;17263;48.160;11.452;2022-09-09T15:46:53;19.80;99.90
30473;DHT22;17263;48.160;11.452;2022-09-09T15:49:39;19.80;99.90
30473;DHT22;17263;48.160;11.452;2022-09-09T15:52:26;19.80;99.90
30473;DHT22;17263;48.160;11.452;2022-09-09T15:55:12;19.80;99.90
30473;DHT22;17263;48.160;11.452;2022-09-09T15:57:58;19.60;99.90
30473;DHT22;17263;48.160;11.452;2022-09-09T16:00:44;19.50;99.90
30473;DHT22;17263;48.160;11.452;2022-09-09T16:03:35;19.30;99.90
30473;DHT22;17263;48.160;11.452;2022-09-09T16:06:23;19.10;99.90
30473;DHT22;17263;48.160;11.452;2022-09-09T16:09:10;18.90;99.90
30473;DHT22;17263;48.160;11.452;2022-09-09T16:11:57;18.80;99.90
30473;DHT22;17263;48.160;11.452;2022-09-09T16:14:44;18.70;99.90
30473;DHT22;17263;48.160;11.452;2022-09-09T16:17:31;18.80;99.90
30473;DHT22;17263;48.160;11.452;2022-09-09T16:20:23;18.80;99.90
30473;DHT22;17263;48.160;11.452;2022-09-09T16:23:10;18.90;99.90
30473;DHT22;17263;48.160;11.452;2022-09-09T16:25:58;19.00;99.90
30473;DHT22;17263;48.160;11.452;2022-09-09T16:28:44;19.00;99.90
30473;DHT22;17263;48.160;11.452;2022-09-09T16:31:32;19.00;99.90
30473;DHT22;17263;48.160;11.452;2022-09-09T16:34:19;19.00;99.90
30473;DHT22;17263;48.160;11.452;2022-09-09T16:37:06;18.90;99.90
30473;DHT22;17263;48.160;11.452;2022-09-09T16:39:52;18.80;99.90
30473;DHT22;17263;48.160;11.452;2022-09-09T16:42:40;18.70;99.90
30473;DHT22;17263;48.160;11.452;2022-09-09T16:45:28;18.50;99.90
30473;DHT22;17263;48.160;11.452;2022-09-09T16:48:14;18.40;99.90
30473;DHT22;17263;48.160;11.452;2022-09-09T16:51:05;18.40;99.90
30473;DHT22;17263;48.160;11.452;2022-09-09T16:53:53;18.30;99.90
30473;DHT22;17263;48.160;11.452;2022-09-09T16:56:41;18.20;99.90
30473;DHT22;17263;48.160;11.452;2022-09-09T16:59:28;18.10;99.90
30473;DHT22;17263;48.160;11.452;2022-09-09T17:02:14;18.00;99.90
30473;DHT22;17263;48.160;11.452;2022-09-09T17:05:00;17.90;99.90
30473;DHT22;17263;48.160;11.452;2022-09-09T17:07:47;17.80;99.90
30473;DHT22;17263;48.160;11.452;2022-09-09T17:10:33;17.80;99.90
30473;DHT22;17263;48.160;11.452;2022-09-09T17:13:19;17.70;99.90
30473;DHT22;17263;48.160;11.452;2022-09-09T17:16:06;17.70;99.90
30473;DHT22;17263;48.160;11.452;2022-09-09T17:18:53;17.60;99.90
30473;DHT22;17263;48.160;11.452;2022-09-09T17:21:40;17.50;99.90
30473;DHT22;17263;48.160;11.452;2022-09-09T17:24:27;17.40;99.90
30473;DHT22;17263;48.160;11.452;2022-09-09T17:27:14;17.30;99.90
30473;DHT22;17263;48.160;11.452;2022-09-09T17:30:01;17.30;99.90
30473;DHT22;17263;48.160;11.452;2022-09-09T17:32:48;17.20;99.90
30473;DHT22;17263;48.160;11.452;2022-09-09T17:35:35;17.20;99.90
30473;DHT22;17263;48.160;11.452;2022-09-09T17:38:21;17.10;99.90
30473;DHT22;17263;48.160;11.452;2022-09-09T17:41:12;17.00;99.90
30473;DHT22;17263;48.160;11.452;2022-09-09T17:43:59;17.00;99.90
30473;DHT22;17263;48.160;11.452;2022-09-09T17:46:46;16.90;99.90
30473;DHT22;17263;48.160;11.452;2022-09-09T17:49:32;16.90;99.90
30473;DHT22;17263;48.160;11.452;2022-09-09T17:52:19;16.80;99.90
30473;DHT22;17263;48.160;11.452;2022-09-09T17:55:07;16.70;99.90
30473;DHT22;17263;48.160;11.452;2022-09-09T17:57:55;16.70;99.90
30473;DHT22;17263;48.160;11.452;2022-09-09T18:00:41;16.60;99.90
30473;DHT22;17263;48.160;11.452;2022-09-09T18:03:28;16.60;99.90
30473;DHT22;17263;48.160;11.452;2022-09-09T18:06:17;16.60;99.90
30473;DHT22;17263;48.160;11.452;2022-09-09T18:09:07;16.50;99.90
30473;DHT22;17263;48.160;11.452;2022-09-09T18:11:56;16.50;99.90
30473;DHT22;17263;48.160;11.452;2022-09-09T18:14:43;16.40;99.90
30473;DHT22;17263;48.160;11.452;2022-09-09T18:17:29;16.40;99.90
30473;DHT22;17263;48.160;11.452;2022-09-09T18:20:16;16.40;99.90
30473;DHT22;17263;48.160;11.452;2022-09-09T18:23:03;16.30;99.90
30473;DHT22;17263;48.160;11.452;2022-09-09T18:25:49;16.30;99.90
30473;DHT22;17263;48.160;11.452;2022-09-09T18:28:37;16.30;99.90
30473;DHT22;17263;48.160;11.452;2022-09-09T18:31:25;16.20;99.90
30473;DHT22;17263;48.160;11.452;2022-09-09T18:34:15;16.20;99.90
30473;DHT22;17263;48.160;11.452;2022-09-09T18:37:02;16.10;99.90
30473;DHT22;17263;48.160;11.452;2022-09-09T18:39:48;16.10;99.90
30473;DHT22;17263;48.160;11.452;2022-09-09T18:42:35;16.00;99.90
30473;DHT22;17263;48.160;11.452;2022-09-09T18:45:21;16.00;99.90
30473;DHT22;17263;48.160;11.452;2022-09-09T18:48:07;15.90;99.90